Time;durP1;ratioP1;P1;durP2;ratioP2;P2;SDS_P1;SDS_P2;PMS_P1;PMS_P2;Temp;Humidity;BMP_temperature;BMP_pressure;BME280_temperature;BME280_humidity;BME280_pressure;Samples;Min_cycle;Max_cycle;Signal;HPM_P1;HPM_P2
2022/10/06 00:01:25;;;;;;;2.25;0.85;;;22.60;51.20;;;;;;5039337;28;20885;-52
2022/10/06 00:03:52;;;;;;;2.05;0.73;;;22.60;51.20;;;;;;5036394;28;20456;-52
2022/10/06 00:06:18;;;;;;;2.33;0.68;;;22.60;51.20;;;;;;5045424;28;20041;-50
2022/10/06 00:08:45;;;;;;;1.67;0.70;;;22.60;51.30;;;;;;5045516;28;20040;-52
2022/10/06 00:11:12;;;;;;;3.28;0.70;;;22.60;51.30;;;;;;5046111;28;20042;-52
2022/10/06 00:13:38;;;;;;;1.88;0.50;;;22.60;51.30;;;;;;5045317;28;20036;-53
2022/10/06 00:16:09;;;;;;;2.33;0.70;;;22.60;51.30;;;;;;5047253;28;20036;-52
2022/10/06 00:18:36;;;;;;;1.90;0.70;;;22.60;51.30;;;;;;5041960;28;20033;-52
2022/10/06 00:21:03;;;;;;;2.42;0.80;;;22.60;51.30;;;;;;5044164;28;20029;-54
2022/10/06 00:23:30;;;;;;;2.15;0.70;;;22.60;51.20;;;;;;5042485;28;20021;-52
2022/10/06 00:25:57;;;;;;;1.38;0.70;;;22.50;51.20;;;;;;5044023;28;20116;-55
2022/10/06 00:28:23;;;;;;;1.80;0.60;;;22.50;51.20;;;;;;5039191;28;20063;-53
2022/10/06 00:30:49;;;;;;;1.48;0.60;;;22.60;51.20;;;;;;5047423;28;20138;-55
2022/10/06 00:33:16;;;;;;;2.65;0.75;;;22.50;51.20;;;;;;5047570;28;20036;-55
2022/10/06 00:35:43;;;;;;;2.33;0.98;;;22.50;51.20;;;;;;5043402;28;20037;-50
2022/10/06 00:38:13;;;;;;;1.38;0.60;;;22.50;51.10;;;;;;5041920;28;20506;-53
2022/10/06 00:40:48;;;;;;;1.60;0.60;;;22.50;51.10;;;;;;5044229;28;20029;-52
2022/10/06 00:43:47;;;;;;;1.92;0.68;;;22.50;51.00;;;;;;5047751;28;20114;-52
2022/10/06 00:46:28;;;;;;;1.58;0.80;;;22.50;50.90;;;;;;5043563;28;20108;-54
2022/10/06 00:49:00;;;;;;;1.25;0.60;;;22.50;51.50;;;;;;5044355;28;20037;-54
2022/10/06 00:51:27;;;;;;;2.17;0.50;;;22.50;50.90;;;;;;5044162;28;20040;-55
2022/10/06 00:53:56;;;;;;;3.13;0.85;;;22.50;50.80;;;;;;5046545;28;20037;-51
2022/10/06 00:56:23;;;;;;;2.03;0.70;;;22.50;50.80;;;;;;5044917;28;20040;-56
2022/10/06 00:58:49;;;;;;;1.92;0.65;;;22.50;50.80;;;;;;5032420;28;20032;-56
2022/10/06 01:01:16;;;;;;;1.90;0.80;;;22.40;50.70;;;;;;5045743;28;20099;-56
2022/10/06 01:03:47;;;;;;;3.17;0.88;;;22.40;50.70;;;;;;5048393;28;20121;-56
2022/10/06 01:06:13;;;;;;;2.40;0.90;;;22.40;50.60;;;;;;5048183;28;20079;-55
2022/10/06 01:08:39;;;;;;;1.35;0.50;;;22.40;50.60;;;;;;5047817;28;20049;-56
2022/10/06 01:11:11;;;;;;;4.32;0.80;;;22.40;50.60;;;;;;5050294;28;20033;-52
2022/10/06 01:13:39;;;;;;;2.17;0.70;;;22.40;50.60;;;;;;5050163;28;20029;-50
2022/10/06 01:16:21;;;;;;;1.95;0.73;;;22.40;50.50;;;;;;5034484;28;20093;-48
2022/10/06 01:18:47;;;;;;;2.42;0.77;;;22.40;50.50;;;;;;5042468;28;20036;-53
2022/10/06 01:21:23;;;;;;;1.52;0.80;;;22.40;50.50;;;;;;5051068;28;20391;-53
2022/10/06 01:23:49;;;;;;;2.35;0.77;;;22.40;50.50;;;;;;5047826;28;20033;-53
2022/10/06 01:26:17;;;;;;;2.33;0.80;;;22.40;50.40;;;;;;5049583;28;20028;-52
2022/10/06 01:28:43;;;;;;;1.73;0.65;;;22.40;50.40;;;;;;5046756;28;20025;-50
2022/10/06 01:31:09;;;;;;;2.58;0.70;;;22.40;50.40;;;;;;5050434;28;20061;-52
2022/10/06 01:33:35;;;;;;;1.17;0.63;;;22.40;50.30;;;;;;5045838;28;20029;-53
2022/10/06 01:36:02;;;;;;;2.97;0.95;;;22.40;50.30;;;;;;5047505;28;20045;-54
2022/10/06 01:38:27;;;;;;;4.13;1.05;;;22.40;50.20;;;;;;5045050;28;20025;-51
2022/10/06 01:40:58;;;;;;;1.90;0.95;;;22.40;50.20;;;;;;5048449;28;20102;-53
2022/10/06 01:43:24;;;;;;;3.10;1.00;;;22.30;50.10;;;;;;5045131;28;20482;-51
2022/10/06 01:45:57;;;;;;;2.70;0.80;;;22.30;50.10;;;;;;5048776;28;20053;-51
2022/10/06 01:48:24;;;;;;;1.80;0.75;;;22.30;50.10;;;;;;5049009;28;20094;-52
2022/10/06 01:50:51;;;;;;;3.90;1.15;;;22.30;50.10;;;;;;5043726;28;20047;-53
2022/10/06 01:53:17;;;;;;;3.85;0.93;;;22.30;50.10;;;;;;5047590;28;20028;-55
2022/10/06 01:55:43;;;;;;;3.78;0.75;;;22.30;50.10;;;;;;5080960;28;20036;-56
2022/10/06 01:58:11;;;;;;;2.90;0.60;;;22.30;50.10;;;;;;5046078;28;20025;-55
2022/10/06 02:00:38;;;;;;;3.08;1.02;;;22.30;50.10;;;;;;5042637;28;20086;-55
2022/10/06 02:03:06;;;;;;;2.72;0.95;;;22.30;50.70;;;;;;5044686;28;20039;-53
2022/10/06 02:05:32;;;;;;;1.92;0.60;;;22.30;50.60;;;;;;5041775;28;20021;-53
2022/10/06 02:08:01;;;;;;;1.05;0.60;;;22.30;50.00;;;;;;5042473;28;20029;-55
2022/10/06 02:10:27;;;;;;;2.20;0.90;;;22.20;49.90;;;;;;5046495;28;20490;-54
2022/10/06 02:12:53;;;;;;;2.17;0.70;;;22.30;50.00;;;;;;5079389;28;20037;-56
2022/10/06 02:15:21;;;;;;;3.92;0.82;;;22.30;50.00;;;;;;5047797;28;20025;-54
2022/10/06 02:17:47;;;;;;;2.90;0.90;;;22.30;50.00;;;;;;5046507;28;20025;-52
2022/10/06 02:20:14;;;;;;;3.05;0.80;;;22.20;49.90;;;;;;5019891;28;20117;-54
2022/10/06 02:22:41;;;;;;;2.35;0.75;;;22.20;49.90;;;;;;5049461;28;20029;-54
2022/10/06 02:25:07;;;;;;;3.80;0.90;;;22.20;50.50;;;;;;5045952;28;20036;-56
2022/10/06 02:27:33;;;;;;;2.50;0.80;;;22.20;49.80;;;;;;5049082;28;20029;-52
2022/10/06 02:30:00;;;;;;;3.13;0.80;;;22.20;49.80;;;;;;5047170;28;20029;-54
2022/10/06 02:32:38;;;;;;;2.13;0.63;;;22.20;49.80;;;;;;5047609;28;20452;-53
2022/10/06 02:35:05;;;;;;;2.00;1.00;;;22.20;49.80;;;;;;5043293;28;20036;-52
2022/10/06 02:37:32;;;;;;;2.83;0.90;;;22.20;49.80;;;;;;5048968;28;20036;-53
2022/10/06 02:39:59;;;;;;;4.00;0.90;;;22.20;49.70;;;;;;5047019;28;20029;-56
2022/10/06 02:42:25;;;;;;;2.40;0.90;;;22.20;49.70;;;;;;5047809;28;20020;-52
2022/10/06 02:44:52;;;;;;;3.15;0.90;;;22.20;49.70;;;;;;5045658;28;20341;-51
2022/10/06 02:47:21;;;;;;;3.13;0.95;;;22.20;49.70;;;;;;5048022;28;20021;-54
2022/10/06 02:49:47;;;;;;;2.53;0.90;;;22.10;49.60;;;;;;5037490;28;20128;-51
2022/10/06 02:52:14;;;;;;;1.95;0.68;;;22.20;49.60;;;;;;5047668;28;20041;-54
2022/10/06 02:54:41;;;;;;;2.38;0.60;;;22.20;49.60;;;;;;5047325;28;20028;-51
2022/10/06 02:57:07;;;;;;;3.38;0.98;;;22.10;49.60;;;;;;5044071;28;20029;-54
2022/10/06 02:59:33;;;;;;;2.22;0.77;;;22.10;49.50;;;;;;5040139;28;20473;-54
2022/10/06 03:01:59;;;;;;;1.75;0.70;;;22.10;49.60;;;;;;5048012;28;20059;-51
2022/10/06 03:04:25;;;;;;;3.92;0.90;;;22.10;49.50;;;;;;5045920;28;20048;-56
2022/10/06 03:06:50;;;;;;;3.00;1.02;;;22.10;49.60;;;;;;5044464;28;20465;-56
2022/10/06 03:09:22;;;;;;;2.90;0.90;;;22.10;49.60;;;;;;5041763;28;20104;-57
2022/10/06 03:11:50;;;;;;;2.42;0.90;;;22.10;49.50;;;;;;5047471;28;20049;-56
2022/10/06 03:14:48;;;;;;;2.10;0.80;;;22.10;49.50;;;;;;5045707;28;20036;-50
2022/10/06 03:17:14;;;;;;;2.80;0.93;;;22.10;49.50;;;;;;5047186;28;20057;-52
2022/10/06 03:19:48;;;;;;;3.03;0.80;;;22.10;49.50;;;;;;5042722;28;20033;-53
2022/10/06 03:22:14;;;;;;;1.80;0.70;;;22.10;49.50;;;;;;5043031;28;20037;-54
2022/10/06 03:24:52;;;;;;;2.63;1.13;;;22.10;49.50;;;;;;5035660;28;20025;-50
2022/10/06 03:27:20;;;;;;;3.13;1.10;;;22.10;49.50;;;;;;5046998;28;20458;-52
2022/10/06 03:29:46;;;;;;;2.40;0.70;;;22.00;49.40;;;;;;5046610;28;20021;-51
2022/10/06 03:32:13;;;;;;;3.75;1.20;;;22.00;49.40;;;;;;5047105;28;20053;-53
2022/10/06 03:34:41;;;;;;;3.03;1.00;;;22.00;49.40;;;;;;5045378;28;20035;-56
2022/10/06 03:37:10;;;;;;;5.38;1.20;;;22.00;49.40;;;;;;5040939;28;21085;-52
2022/10/06 03:39:36;;;;;;;7.32;1.20;;;22.00;49.40;;;;;;5043533;28;20025;-51
2022/10/06 03:42:02;;;;;;;2.28;0.70;;;22.00;49.40;;;;;;5048325;28;20080;-52
2022/10/06 03:44:27;;;;;;;2.83;1.02;;;22.00;49.40;;;;;;5042589;28;20028;-54
2022/10/06 03:46:53;;;;;;;1.52;0.68;;;22.00;49.30;;;;;;5036415;28;20469;-52
2022/10/06 03:49:19;;;;;;;2.40;0.82;;;22.00;49.30;;;;;;5045672;28;20112;-51
2022/10/06 03:51:45;;;;;;;2.53;0.88;;;22.00;49.90;;;;;;5031533;28;20065;-51
2022/10/06 03:54:24;;;;;;;3.30;0.73;;;22.00;49.30;;;;;;5042237;28;20025;-51
2022/10/06 03:56:52;;;;;;;3.25;1.05;;;22.00;49.30;;;;;;5016465;28;20442;-54
2022/10/06 03:59:18;;;;;;;3.10;0.90;;;22.00;49.30;;;;;;5043059;28;20076;-52
2022/10/06 04:01:47;;;;;;;2.08;0.77;;;22.00;49.20;;;;;;5042012;28;20021;-51
2022/10/06 04:04:17;;;;;;;2.30;0.70;;;22.00;49.20;;;;;;5047094;28;20466;-52
2022/10/06 04:06:47;;;;;;;3.15;1.00;;;22.00;49.30;;;;;;5044346;28;20021;-54
2022/10/06 04:09:17;;;;;;;3.20;1.45;;;22.00;49.30;;;;;;5042573;28;20492;-51
2022/10/06 04:11:43;;;;;;;4.05;1.25;;;22.00;49.20;;;;;;5045814;28;20048;-50
2022/10/06 04:14:13;;;;;;;3.60;0.90;;;22.00;49.20;;;;;;5044927;28;20039;-52
2022/10/06 04:16:42;;;;;;;3.53;0.88;;;22.00;49.20;;;;;;5072579;28;20029;-56
2022/10/06 04:19:10;;;;;;;2.67;0.90;;;21.90;49.20;;;;;;5043511;28;20075;-56
2022/10/06 04:21:40;;;;;;;3.58;0.88;;;21.90;49.20;;;;;;5045264;28;20111;-51
2022/10/06 04:24:09;;;;;;;2.78;0.95;;;21.90;49.20;;;;;;5034018;28;20438;-54
2022/10/06 04:26:44;;;;;;;3.08;0.80;;;21.90;49.10;;;;;;5047288;28;20113;-53
2022/10/06 04:29:12;;;;;;;3.25;0.82;;;21.90;49.10;;;;;;5040886;28;20043;-51
2022/10/06 04:31:39;;;;;;;2.50;0.88;;;21.90;49.20;;;;;;5047665;28;20440;-49
2022/10/06 04:34:12;;;;;;;2.17;0.90;;;21.90;49.20;;;;;;5044864;28;20040;-52
2022/10/06 04:36:40;;;;;;;2.70;0.90;;;21.90;49.20;;;;;;5034873;28;20037;-51
2022/10/06 04:39:11;;;;;;;2.70;0.75;;;21.90;49.20;;;;;;5047034;28;20025;-53
2022/10/06 04:41:40;;;;;;;4.22;1.10;;;21.90;49.20;;;;;;5044825;28;20416;-51
2022/10/06 04:44:07;;;;;;;3.58;0.88;;;21.90;49.10;;;;;;5045014;28;20021;-50
2022/10/06 04:46:34;;;;;;;3.78;1.08;;;21.90;49.10;;;;;;5048880;28;20057;-50
2022/10/06 04:49:02;;;;;;;2.45;1.02;;;21.90;49.10;;;;;;5046656;28;20040;-51
2022/10/06 04:51:30;;;;;;;2.45;0.80;;;21.90;49.10;;;;;;5045681;28;20029;-51
2022/10/06 04:53:57;;;;;;;2.70;0.77;;;21.80;49.00;;;;;;5047754;28;20021;-51
2022/10/06 04:56:28;;;;;;;3.08;1.10;;;21.80;49.00;;;;;;5049282;28;20037;-52
2022/10/06 04:58:56;;;;;;;2.20;0.80;;;21.80;49.00;;;;;;5045146;28;20031;-51
2022/10/06 05:01:27;;;;;;;2.38;1.00;;;21.80;49.00;;;;;;5046127;28;20360;-52
2022/10/06 05:03:55;;;;;;;2.10;0.80;;;21.80;48.90;;;;;;5048712;28;20168;-54
2022/10/06 05:06:24;;;;;;;3.70;0.80;;;21.80;48.90;;;;;;5041049;28;20837;-52
2022/10/06 05:08:59;;;;;;;3.28;1.13;;;21.80;48.90;;;;;;5038739;28;20025;-56
2022/10/06 05:11:27;;;;;;;3.15;1.02;;;21.80;48.90;;;;;;5046782;28;20040;-54
2022/10/06 05:13:55;;;;;;;3.38;1.33;;;21.80;48.90;;;;;;5045605;28;20029;-57
2022/10/06 05:16:26;;;;;;;1.92;0.80;;;21.80;48.90;;;;;;5047873;28;20029;-55
2022/10/06 05:18:52;;;;;;;2.28;0.82;;;21.80;48.90;;;;;;5047028;28;20055;-56
2022/10/06 05:21:21;;;;;;;3.00;1.08;;;21.80;48.90;;;;;;5042132;28;20021;-54
2022/10/06 05:23:48;;;;;;;3.72;0.80;;;21.80;48.90;;;;;;5036171;28;20021;-52
2022/10/06 05:26:17;;;;;;;2.72;1.13;;;21.80;48.90;;;;;;5049528;28;20047;-53
2022/10/06 05:28:43;;;;;;;2.55;0.90;;;21.80;48.80;;;;;;5047513;28;20117;-53
2022/10/06 05:31:18;;;;;;;3.70;1.23;;;21.80;48.80;;;;;;5048162;28;20059;-53
2022/10/06 05:33:45;;;;;;;3.38;1.15;;;21.80;48.80;;;;;;5039263;28;20045;-52
2022/10/06 05:36:13;;;;;;;2.25;0.70;;;21.80;48.80;;;;;;5048943;28;20104;-53
2022/10/06 05:38:40;;;;;;;3.17;1.20;;;21.70;48.80;;;;;;5048262;28;20021;-50
2022/10/06 05:41:14;;;;;;;3.50;1.30;;;21.70;48.80;;;;;;5035747;28;20033;-54
2022/10/06 05:43:40;;;;;;;2.33;1.00;;;21.80;48.80;;;;;;5038143;28;20022;-52
2022/10/06 05:46:11;;;;;;;3.75;1.15;;;21.70;48.80;;;;;;5048772;28;20056;-56
2022/10/06 05:48:37;;;;;;;3.65;1.30;;;21.70;48.70;;;;;;5041251;28;20090;-52
2022/10/06 05:51:06;;;;;;;3.53;1.13;;;21.70;48.70;;;;;;5047314;28;20033;-55
2022/10/06 05:53:35;;;;;;;4.50;1.27;;;21.70;48.60;;;;;;5043671;28;20057;-50
2022/10/06 05:56:05;;;;;;;3.20;1.10;;;21.70;48.60;;;;;;5037948;28;20029;-49
2022/10/06 05:58:33;;;;;;;3.40;1.40;;;21.70;48.60;;;;;;5041657;28;20021;-53
2022/10/06 06:01:13;;;;;;;3.58;1.23;;;21.70;48.50;;;;;;5045776;28;20060;-56
2022/10/06 06:03:45;;;;;;;1.70;0.90;;;21.70;48.50;;;;;;5039282;28;20036;-53
2022/10/06 06:06:22;;;;;;;3.80;1.00;;;21.70;48.50;;;;;;5044856;28;20031;-49
2022/10/06 06:09:16;;;;;;;2.47;0.90;;;21.60;48.50;;;;;;5043122;28;20044;-50
2022/10/06 06:11:46;;;;;;;3.78;1.20;;;21.60;48.40;;;;;;5032160;28;20105;-52
2022/10/06 06:14:15;;;;;;;3.55;1.20;;;21.70;48.50;;;;;;5040072;28;20021;-50
2022/10/06 06:16:42;;;;;;;3.85;1.10;;;21.70;48.50;;;;;;5048983;28;20372;-53
2022/10/06 06:19:10;;;;;;;4.40;1.40;;;21.70;48.50;;;;;;5044049;28;20425;-55
2022/10/06 06:21:38;;;;;;;3.75;0.93;;;21.60;48.40;;;;;;5037294;28;20025;-55
2022/10/06 06:24:05;;;;;;;4.93;1.50;;;21.70;48.40;;;;;;5038913;28;20029;-50
2022/10/06 06:26:33;;;;;;;4.10;1.10;;;21.60;48.30;;;;;;5055152;28;20035;-49
2022/10/06 06:29:03;;;;;;;3.17;1.42;;;21.70;48.40;;;;;;5043707;28;20360;-53
2022/10/06 06:31:36;;;;;;;4.22;1.15;;;21.70;48.30;;;;;;5034814;28;20050;-53
2022/10/06 06:34:05;;;;;;;2.42;1.20;;;21.60;48.20;;;;;;5022684;28;20029;-48
2022/10/06 06:36:39;;;;;;;4.15;1.40;;;21.70;48.30;;;;;;5045751;28;20052;-54
2022/10/06 06:39:13;;;;;;;4.80;1.33;;;21.60;48.20;;;;;;5046846;28;20356;-55
2022/10/06 06:41:43;;;;;;;4.40;1.58;;;21.60;48.20;;;;;;5052031;28;20032;-52
2022/10/06 06:44:29;;;;;;;4.95;1.65;;;21.60;48.20;;;;;;5040689;28;20433;-51
2022/10/06 06:47:02;;;;;;;4.25;1.20;;;21.60;48.30;;;;;;5034441;28;20116;-53
2022/10/06 06:49:28;;;;;;;5.18;1.30;;;21.60;48.40;;;;;;5036786;28;20021;-53
2022/10/06 06:52:03;;;;;;;3.33;1.23;;;21.60;48.40;;;;;;5044564;28;20033;-51
2022/10/06 06:54:29;;;;;;;3.95;1.40;;;21.60;48.40;;;;;;5047313;28;20017;-50
2022/10/06 06:57:03;;;;;;;5.70;1.50;;;21.60;48.30;;;;;;5031718;28;20018;-52
2022/10/06 06:59:31;;;;;;;3.22;1.30;;;21.60;48.30;;;;;;5053935;28;20091;-50
2022/10/06 07:01:57;;;;;;;3.72;1.70;;;21.60;48.30;;;;;;5067246;28;20025;-53
2022/10/06 07:04:24;;;;;;;4.72;1.10;;;21.60;48.20;;;;;;5063453;28;20065;-54
2022/10/06 07:06:56;;;;;;;4.47;1.33;;;21.60;48.20;;;;;;5070138;28;20080;-51
2022/10/06 07:09:27;;;;;;;5.18;1.63;;;21.60;48.20;;;;;;5069247;28;20124;-55
2022/10/06 07:11:59;;;;;;;6.32;1.75;;;21.60;48.20;;;;;;5052937;28;20466;-52
2022/10/06 07:14:25;;;;;;;4.15;1.65;;;21.60;48.10;;;;;;5044895;28;20124;-54
2022/10/06 07:25:13;;;;;;;3.90;1.40;;;21.60;48.10;;;;;;5043391;28;20036;-55
2022/10/06 07:27:45;;;;;;;6.05;1.85;;;21.60;48.10;;;;;;5044181;28;20025;-56
2022/10/06 07:30:21;;;;;;;3.92;1.50;;;21.60;48.10;;;;;;5033957;28;20025;-50
2022/10/06 07:32:52;;;;;;;5.15;1.60;;;21.60;48.10;;;;;;5032767;28;20029;-53
2022/10/06 07:35:20;;;;;;;4.90;1.60;;;21.60;48.10;;;;;;5066371;28;20040;-51
2022/10/06 07:37:48;;;;;;;5.20;1.50;;;21.60;48.00;;;;;;5040463;28;20132;-55
2022/10/06 07:40:15;;;;;;;3.65;1.40;;;21.60;48.00;;;;;;5032646;28;20021;-51
2022/10/06 07:42:48;;;;;;;5.93;1.35;;;21.60;48.10;;;;;;5031685;28;20026;-51
2022/10/06 07:48:03;;;;;;;4.10;1.60;;;21.60;48.10;;;;;;5030350;28;20037;-53
2022/10/06 07:50:30;;;;;;;4.10;1.50;;;21.60;48.00;;;;;;5031987;28;20048;-52
2022/10/06 07:52:56;;;;;;;5.65;1.50;;;21.60;48.00;;;;;;5031450;28;20113;-51
2022/10/06 07:55:23;;;;;;;5.20;1.77;;;21.60;48.00;;;;;;5032402;28;20129;-53
2022/10/06 07:58:15;;;;;;;4.30;1.70;;;21.60;48.00;;;;;;5032808;28;20334;-52
2022/10/06 08:00:41;;;;;;;3.15;1.13;;;21.60;47.90;;;;;;5032975;28;20029;-49
2022/10/06 08:03:09;;;;;;;5.93;1.70;;;21.60;47.90;;;;;;5033301;28;20108;-51
2022/10/06 08:05:37;;;;;;;3.38;1.27;;;21.60;47.90;;;;;;5031687;28;20029;-53
2022/10/06 08:08:07;;;;;;;5.65;1.77;;;21.60;47.90;;;;;;5043359;28;21176;-52
2022/10/06 08:10:40;;;;;;;4.15;1.40;;;21.60;47.90;;;;;;5036365;28;20056;-54
2022/10/06 08:13:06;;;;;;;4.13;1.40;;;21.60;47.90;;;;;;5037519;28;20499;-54
2022/10/06 08:15:33;;;;;;;6.22;1.60;;;21.60;47.90;;;;;;5036809;28;20357;-55
2022/10/06 08:18:00;;;;;;;3.92;1.92;;;21.60;47.90;;;;;;5038700;28;20118;-55
2022/10/06 08:20:26;;;;;;;5.28;1.40;;;21.60;48.50;;;;;;5041221;28;20124;-54
2022/10/06 08:22:53;;;;;;;5.55;1.83;;;21.60;47.90;;;;;;5048955;28;20100;-56
2022/10/06 08:25:19;;;;;;;5.80;1.75;;;21.60;47.80;;;;;;5037500;28;20021;-52
2022/10/06 08:27:45;;;;;;;5.40;1.73;;;21.60;47.90;;;;;;5031057;28;20399;-53
2022/10/06 08:30:12;;;;;;;5.97;1.50;;;21.60;47.80;;;;;;5054773;28;20041;-55
2022/10/06 08:32:40;;;;;;;6.22;1.90;;;21.60;47.80;;;;;;5044935;28;20038;-52
2022/10/06 08:35:06;;;;;;;4.38;1.55;;;21.70;47.80;;;;;;5042347;28;20357;-57
2022/10/06 08:37:32;;;;;;;5.70;1.48;;;21.70;47.80;;;;;;5036715;28;20533;-53
2022/10/06 08:40:06;;;;;;;5.28;1.58;;;21.60;47.80;;;;;;5049100;28;20048;-53
2022/10/06 08:42:38;;;;;;;3.45;1.40;;;21.70;47.80;;;;;;5052944;28;20061;-56
2022/10/06 08:45:22;;;;;;;3.63;1.30;;;21.60;47.80;;;;;;5042695;28;20029;-57
2022/10/06 08:48:04;;;;;;;4.10;1.20;;;21.60;47.70;;;;;;5038018;28;20110;-55
2022/10/06 08:50:37;;;;;;;5.78;1.60;;;21.60;47.70;;;;;;5051282;28;20028;-52
2022/10/06 08:53:21;;;;;;;4.00;1.50;;;21.70;47.80;;;;;;5037458;28;20052;-50
2022/10/06 08:55:50;;;;;;;4.40;1.38;;;21.60;47.80;;;;;;5042819;28;20128;-55
2022/10/06 08:58:34;;;;;;;6.85;1.80;;;21.60;47.80;;;;;;5044099;28;20091;-54
2022/10/06 09:01:08;;;;;;;;;;;21.70;48.10;;;;;;5046513;28;20451;-58
2022/10/06 09:03:37;;;;;;;4.07;1.45;;;21.70;48.20;;;;;;5057753;28;20006;-57
2022/10/06 09:06:22;;;;;;;5.75;1.90;;;21.70;48.20;;;;;;5057877;28;20116;-53
2022/10/06 09:08:57;;;;;;;6.45;2.13;;;21.70;48.20;;;;;;5036730;28;20029;-51
2022/10/06 09:11:45;;;;;;;6.65;1.77;;;21.70;48.20;;;;;;5031634;28;20141;-53
2022/10/06 09:14:20;;;;;;;5.20;1.60;;;21.70;48.10;;;;;;5019321;28;20460;-50
2022/10/06 09:16:50;;;;;;;4.00;1.52;;;21.70;48.10;;;;;;5029975;28;20083;-54
2022/10/06 09:19:29;;;;;;;4.13;1.38;;;21.70;48.00;;;;;;5043305;28;20163;-51
2022/10/06 09:21:55;;;;;;;4.50;1.55;;;21.70;47.90;;;;;;5057817;28;20052;-51
2022/10/06 09:24:26;;;;;;;3.25;1.30;;;21.70;47.90;;;;;;5058187;28;20171;-53
2022/10/06 09:26:56;;;;;;;4.78;1.50;;;21.70;47.80;;;;;;5057660;28;20033;-56
2022/10/06 09:29:22;;;;;;;4.30;2.00;;;21.70;47.70;;;;;;5057235;28;20048;-56
2022/10/06 09:31:51;;;;;;;3.30;1.23;;;21.70;47.60;;;;;;5042140;28;20125;-50
2022/10/06 09:34:47;;;;;;;4.10;1.23;;;21.70;47.50;;;;;;5046268;28;20032;-55
2022/10/06 09:37:14;;;;;;;5.70;1.75;;;21.70;47.40;;;;;;5038242;28;20079;-54
2022/10/06 09:39:49;;;;;;;4.72;1.20;;;21.70;47.40;;;;;;5036905;28;20037;-52
2022/10/06 09:42:18;;;;;;;3.35;1.40;;;21.70;47.20;;;;;;5037089;28;20033;-53
2022/10/06 09:44:57;;;;;;;3.30;1.17;;;21.80;47.30;;;;;;5036430;28;20130;-52
2022/10/06 09:47:33;;;;;;;3.95;1.13;;;21.70;47.10;;;;;;5037506;28;20437;-53
2022/10/06 09:50:11;;;;;;;2.72;1.00;;;21.80;47.10;;;;;;5036850;28;20104;-54
2022/10/06 09:53:02;;;;;;;3.88;1.13;;;21.80;47.10;;;;;;5044278;28;20083;-49
2022/10/06 09:55:36;;;;;;;4.10;1.30;;;21.80;47.00;;;;;;5044633;28;20094;-51
2022/10/06 09:58:20;;;;;;;4.25;1.40;;;21.80;47.10;;;;;;5046569;28;20083;-53
2022/10/06 10:00:58;;;;;;;4.18;1.33;;;21.80;47.50;;;;;;5017004;28;20129;-54
2022/10/06 10:03:38;;;;;;;5.53;1.55;;;21.80;47.90;;;;;;5016642;28;20137;-53
2022/10/06 10:06:04;;;;;;;4.00;1.30;;;21.80;48.10;;;;;;5016731;28;20041;-52
2022/10/06 10:08:30;;;;;;;6.28;2.00;;;21.90;48.20;;;;;;5035302;28;20037;-50
2022/10/06 10:12:23;;;;;;;4.13;1.20;;;21.90;48.20;;;;;;5036274;28;20049;-49
2022/10/06 10:13:58;;;;;;;3.53;1.48;;;21.90;48.20;;;;;;5036393;28;20044;-50
2022/10/06 10:16:33;;;;;;;4.28;1.10;;;21.90;48.20;;;;;;5034693;28;20120;-51
2022/10/06 10:19:01;;;;;;;4.68;1.20;;;21.90;48.20;;;;;;5039516;28;20025;-54
2022/10/06 10:21:30;;;;;;;4.57;1.30;;;22.00;48.10;;;;;;5033926;28;20101;-54
2022/10/06 10:23:59;;;;;;;4.20;1.33;;;22.00;47.90;;;;;;5035377;28;20083;-53
2022/10/06 10:26:38;;;;;;;3.75;1.08;;;22.00;47.70;;;;;;5034692;28;20021;-49
2022/10/06 10:29:49;;;;;;;2.75;1.02;;;22.00;48.10;;;;;;5042804;28;20429;-50
2022/10/06 10:32:39;;;;;;;4.20;1.48;;;22.00;47.30;;;;;;5056973;28;20053;-49
2022/10/06 10:35:12;;;;;;;3.33;1.17;;;22.00;47.10;;;;;;5037394;28;20369;-49
2022/10/06 10:37:46;;;;;;;4.25;1.10;;;22.00;46.90;;;;;;5038544;28;20052;-55
2022/10/06 10:40:21;;;;;;;;;;;22.00;46.80;;;;;;5038548;28;20155;-51
2022/10/06 10:42:59;;;;;;;4.15;1.40;;;22.00;46.80;;;;;;5039017;28;19909;-53
2022/10/06 10:45:39;;;;;;;4.88;1.08;;;22.00;47.20;;;;;;5037032;28;20072;-59
2022/10/06 10:48:20;;;;;;;6.07;1.35;;;22.00;47.50;;;;;;5055420;28;20025;-57
2022/10/06 10:51:09;;;;;;;3.95;1.33;;;22.10;47.70;;;;;;5052796;28;20075;-59
2022/10/06 10:53:46;;;;;;;4.32;1.40;;;22.10;47.70;;;;;;5048424;28;20108;-58
2022/10/06 10:56:16;;;;;;;3.47;0.93;;;22.20;47.60;;;;;;5049442;28;20032;-55
2022/10/06 10:58:44;;;;;;;3.97;1.30;;;22.30;47.50;;;;;;5036183;28;20120;-58
2022/10/06 11:01:12;;;;;;;4.90;1.02;;;22.40;47.20;;;;;;5035662;28;20076;-55
2022/10/06 11:03:38;;;;;;;4.50;1.05;;;22.40;47.00;;;;;;5039054;28;20029;-56
2022/10/06 11:06:20;;;;;;;4.95;1.15;;;22.60;46.80;;;;;;5045135;28;20087;-57
2022/10/06 11:08:52;;;;;;;4.72;1.23;;;22.70;46.70;;;;;;5032441;28;20029;-58
2022/10/06 11:11:55;;;;;;;4.50;1.23;;;22.80;46.60;;;;;;5034721;28;20053;-58
2022/10/06 11:14:33;;;;;;;4.15;1.10;;;23.00;46.40;;;;;;5036791;28;20071;-59
2022/10/06 11:17:21;;;;;;;6.65;1.00;;;23.10;46.10;;;;;;5035742;28;20029;-58
2022/10/06 11:19:53;;;;;;;4.70;1.00;;;23.20;45.90;;;;;;5029952;28;20041;-57
2022/10/06 11:22:34;;;;;;;4.65;1.00;;;23.30;46.20;;;;;;5035564;28;20033;-54
2022/10/06 11:25:24;;;;;;;3.70;1.40;;;23.40;45.40;;;;;;5049468;28;20036;-56
2022/10/06 11:28:13;;;;;;;3.60;1.27;;;23.50;45.20;;;;;;5020121;28;20049;-55
2022/10/06 11:31:26;;;;;;;3.30;1.10;;;23.60;45.00;;;;;;5047365;28;20147;-55
2022/10/06 11:33:54;;;;;;;3.92;0.88;;;23.70;44.70;;;;;;5053903;28;20036;-57
2022/10/06 11:36:46;;;;;;;2.05;0.88;;;23.80;44.60;;;;;;5031737;28;20041;-58
2022/10/06 11:39:48;;;;;;;2.45;0.90;;;23.80;44.30;;;;;;5032722;28;20449;-55
2022/10/06 11:42:41;;;;;;;4.78;1.40;;;23.90;44.20;;;;;;5030148;28;20045;-58
2022/10/06 11:45:12;;;;;;;2.80;1.10;;;24.00;44.00;;;;;;5031058;28;20079;-56
2022/10/06 11:48:06;;;;;;;3.63;1.00;;;24.10;43.90;;;;;;5033737;28;20033;-56
2022/10/06 11:50:41;;;;;;;4.22;0.93;;;24.10;43.60;;;;;;5032348;28;20075;-55
2022/10/06 11:53:36;;;;;;;3.50;1.00;;;24.20;43.50;;;;;;5031865;28;20137;-53
2022/10/06 11:56:16;;;;;;;2.90;0.90;;;24.30;43.40;;;;;;5032146;28;20041;-50
2022/10/06 11:58:51;;;;;;;3.55;0.95;;;24.30;43.20;;;;;;5032265;28;20449;-55
2022/10/06 12:01:38;;;;;;;4.00;1.13;;;24.30;43.00;;;;;;5032262;28;20175;-53
2022/10/06 12:04:06;;;;;;;4.88;1.35;;;24.30;42.80;;;;;;5054804;28;20025;-53
2022/10/06 12:06:52;;;;;;;3.00;1.02;;;24.30;42.70;;;;;;5045967;28;20025;-55
2022/10/06 12:09:28;;;;;;;3.42;0.95;;;24.30;42.50;;;;;;5033022;28;20044;-51
2022/10/06 12:11:56;;;;;;;2.00;0.70;;;24.30;42.50;;;;;;5039901;28;20140;-52
2022/10/06 12:14:45;;;;;;;3.10;0.90;;;24.30;42.40;;;;;;5034269;28;20338;-56
2022/10/06 12:17:21;;;;;;;4.28;1.02;;;24.30;42.20;;;;;;5026698;28;20116;-50
2022/10/06 12:19:54;;;;;;;3.28;1.05;;;24.30;42.10;;;;;;5043114;28;20029;-54
2022/10/06 12:22:30;;;;;;;2.85;0.85;;;24.30;42.00;;;;;;5033561;28;20061;-54
2022/10/06 12:25:26;;;;;;;2.70;0.70;;;24.30;41.80;;;;;;5043287;28;20032;-52
2022/10/06 12:28:13;;;;;;;2.88;0.90;;;24.30;41.60;;;;;;5042570;28;20369;-50
2022/10/06 12:30:50;;;;;;;3.35;0.63;;;24.30;41.50;;;;;;5014255;28;20053;-56
2022/10/06 12:33:33;;;;;;;2.85;0.65;;;24.30;41.30;;;;;;5015085;28;20041;-54
2022/10/06 12:36:03;;;;;;;3.40;0.80;;;24.30;41.10;;;;;;5014932;28;20033;-54
2022/10/06 12:38:42;;;;;;;2.35;0.77;;;24.30;41.00;;;;;;5022818;28;20106;-58
2022/10/06 12:41:36;;;;;;;3.33;0.77;;;24.30;41.10;;;;;;5038779;28;20032;-57
2022/10/06 12:44:04;;;;;;;5.83;1.43;;;24.30;41.10;;;;;;5043482;28;20090;-52
2022/10/06 12:46:37;;;;;;;2.65;0.90;;;24.30;41.20;;;;;;5045701;28;20646;-51
2022/10/06 12:49:25;;;;;;;2.83;1.10;;;24.30;41.20;;;;;;5034438;28;20116;-50
2022/10/06 12:51:53;;;;;;;7.97;0.80;;;24.40;41.30;;;;;;5034330;28;20169;-57
2022/10/06 12:54:49;;;;;;;3.75;0.90;;;24.40;41.20;;;;;;5036694;28;20430;-54
2022/10/06 12:57:19;;;;;;;3.03;1.13;;;24.40;41.70;;;;;;5037554;28;20079;-56
2022/10/06 12:59:46;;;;;;;2.60;0.95;;;24.40;41.20;;;;;;5037890;28;20025;-58
2022/10/06 13:02:11;;;;;;;2.47;0.80;;;24.40;41.20;;;;;;5037601;28;20384;-56
2022/10/06 13:04:44;;;;;;;4.28;1.00;;;24.40;41.20;;;;;;5037897;28;20033;-54
2022/10/06 13:07:18;;;;;;;3.90;0.85;;;24.40;41.20;;;;;;5037296;28;20029;-57
2022/10/06 13:09:45;;;;;;;2.40;0.85;;;24.50;41.20;;;;;;5037357;28;20045;-55
2022/10/06 13:12:26;;;;;;;3.00;0.90;;;24.50;41.10;;;;;;5036071;28;20088;-60
2022/10/06 13:15:12;;;;;;;6.38;1.13;;;24.50;41.10;;;;;;5032687;28;20034;-52
2022/10/06 13:18:01;;;;;;;3.08;1.05;;;24.50;41.10;;;;;;5039764;28;20464;-53
2022/10/06 13:20:51;;;;;;;2.80;0.80;;;24.60;41.20;;;;;;5036771;28;20040;-46
2022/10/06 13:23:25;;;;;;;2.67;0.80;;;24.60;41.40;;;;;;5033880;28;20044;-57
2022/10/06 13:26:01;;;;;;;3.05;0.98;;;24.60;41.50;;;;;;5035717;28;20018;-55